Terminal Aerodrome Forecast
Issued by NWS

Home | Current Version | Previous Version | Text Only | Print | Product List | Glossary On
Versions: 1 2 3 4 5 6 7 8 9 10 11 12 13 14 15 16 17 18 19
000
FTUS46 KPDT 111700
TAFBDN
TAF
KBDN 111720Z 1118/1218 21005KT P6SM FEW150 SCT200
     FM112000 34007KT P6SM FEW080 SCT150
     FM112200 33011KT P6SM VCTS BKN080CB BKN150
     FM120500 21005KT P6SM VCSH BKN090 BKN150
     FM120900 22005KT P6SM BKN110=

USA.gov is the U.S. government's official web portal to all federal, state and local government web resources and services.